FKKR

Garoua International Airport

Garoua, Cameroon
METAR FKKR 180000Z 00000KT 9000 NSC 23/09 Q1011
Observed Flight Rules
Dec-18 @ 00:00 UTC (3 hours ago) Visual Flight Rules
Wind Visibility Clouds
Calm 8,996 meters
  • Clear skies
Temperatures Readings
Current 23°C / 73°F
Dewpoint 9°C / 48°F
Humidity 41%
Altimeter 29.85" Hg
Pressure 1011 hPa
Elevation 244
METAR FKKR 180000Z 00000KT 9000 NSC 23/09 Q1011
Observed Flight Rules
Dec-18 @ 00:00 UTC
(3 hours ago)
VFR
Wind Visibility
Calm 8,996 meters
Clouds
  • Clear skies
Temperature Dewpoint
23°C / 73°F 9°C / 48°F
Humidity Altimeter Pressure
41% 29.85" Hg 1011 hPa